Phoenix Sky Harbor International, AZ

9:56 AM MST on April 26, 2015 (GMT -0700)
Phoenix Sky Harbor International | | Change Station
CLOSE
Current Station
Airport
Location: Phoenix,
Elevation: 1106 ft
Nearby Weather Stations

Elev 1106 ft 33.43 °N, 112.00 °W | Updated 5 minutes ago

Mostly Cloudy
Mostly Cloudy
63 °F
Feels Like 63 °F
N
13
Wind Variable Wind from West
Gusts 20 mph

Today
High -- | Low -- °F
--% Chance of Precip.
Yesterday
High -- | Low -- °F
Precip. -- in
5:45 AM 7:06 PM
First Quarter, 57% visible
Pressure 29.81 in
Visibility 10.0 miles
Clouds Scattered Clouds 3300 ft
Mostly Cloudy 3900 ft
Mostly Cloudy 11000 ft
Dew Point 47 °F
Humidity 56%
Rainfall 0.14 in
Snow Depth Not available.
UV 4 out of 12
Pollen 5.20 out of 12
Air Quality Not available.
Flu Activity Local Activity
METAR KPHX 261651Z 27011G17KT 10SM SCT033 BKN039 BKN110 17/08 A2984 RMK AO2 SLP092 T01720083

More Conditions Fewer Conditions

Pressure 29.81 in
Visibility 10.0 miles
Clouds Scattered Clouds 3300 ft
Mostly Cloudy 3900 ft
Mostly Cloudy 11000 ft
Dew Point 47 °F
Humidity 56%
Rainfall 0.14 in
Snow Depth Not available.
UV 4 out of 12
Pollen 5.20 out of 12
Air Quality Not available.
Flu Activity Local Activity
METAR KPHX 261651Z 27011G17KT 10SM SCT033 BKN039 BKN110 17/08 A2984 RMK AO2 SLP092 T01720083

More Conditions Fewer Conditions

The full scope of the disaster following a powerful 7.8-magnitude earthquake in Nepal may not come into view for days, but global charities are already sending emergency aid. Click to see how you can help.

10-Day Weather Forecast

Almanac

Astronomy

Apr. 26, 2015 Rise Set
Actual Time
Civil Twilight
Nautical Twilight
Astronomical Twilight
Moon
Length of Visible Light
Length of Day
Tomorrow will be .
, % of the Moon is Illuminated

Today's Extremes

State Highs State Lows

Community

WunderPhotos

Upload Photos

1,817,054 photos uploaded!

WunderBlogs® & News

Nearby

Air Quality

  Air Quality AQ Index Pollutant
Not available.

Snow Depth

Station Depth Elevation

Earthquake Activity

City Distance Mag. Time & Date
Minimum magnitude displayed is 2.5.

Coastal Water Temperatures

Place Temperature

Stations

Nearby Weather Stations

Station Location Temp. Windchill Dew Point Humidity Wind Precip. Elev Updated Type